createdAt,value
2022-12-09T00:00:06.514Z,14.05
2022-12-09T00:02:52.878Z,15.00
2022-12-09T00:05:41.154Z,13.98
2022-12-09T00:08:27.308Z,14.23
2022-12-09T00:11:17.995Z,14.45
2022-12-09T00:14:04.821Z,14.98
2022-12-09T00:16:51.488Z,15.27
2022-12-09T00:19:38.226Z,15.25
2022-12-09T00:22:26.858Z,15.60
2022-12-09T00:25:12.908Z,15.27
2022-12-09T00:27:59.250Z,15.95
2022-12-09T00:30:46.512Z,16.38
2022-12-09T00:33:34.137Z,16.60
2022-12-09T00:36:21.785Z,16.95
2022-12-09T00:39:08.642Z,17.45
2022-12-09T00:41:55.421Z,16.80
2022-12-09T00:44:41.799Z,16.45
2022-12-09T00:47:27.868Z,16.73
2022-12-09T00:50:15.005Z,16.77
2022-12-09T00:53:01.172Z,17.20
2022-12-09T00:55:47.944Z,16.60
2022-12-09T00:58:34.385Z,17.80
2022-12-09T01:01:20.467Z,17.90
2022-12-09T01:04:08.989Z,17.10
2022-12-09T01:06:56.098Z,16.98
2022-12-09T01:09:43.524Z,17.40
2022-12-09T01:12:30.305Z,17.45
2022-12-09T01:15:16.917Z,16.55
2022-12-09T01:18:03.813Z,17.73
2022-12-09T01:20:56.741Z,17.23
2022-12-09T01:23:43.174Z,17.95
2022-12-09T01:26:29.444Z,17.55
2022-12-09T01:29:16.054Z,16.90
2022-12-09T01:32:02.797Z,18.35
2022-12-09T01:34:49.338Z,18.33
2022-12-09T01:37:36.777Z,17.58
2022-12-09T01:40:23.154Z,18.83
2022-12-09T01:43:19.075Z,17.77
2022-12-09T01:46:05.353Z,18.30
2022-12-09T01:48:52.872Z,17.10
2022-12-09T01:51:40.344Z,17.75
2022-12-09T01:54:26.835Z,18.10
2022-12-09T01:57:13.115Z,17.75
2022-12-09T01:59:59.643Z,17.48
2022-12-09T02:02:47.341Z,18.88
2022-12-09T02:05:40.667Z,18.48
2022-12-09T02:08:27.331Z,18.50
2022-12-09T02:11:20.397Z,19.33
2022-12-09T02:14:10.778Z,19.33
2022-12-09T02:17:07.395Z,19.35
2022-12-09T02:20:05.563Z,19.42
2022-12-09T02:23:19.459Z,19.30
2022-12-09T02:26:09.639Z,19.42
2022-12-09T02:29:02.686Z,18.85
2022-12-09T02:31:51.809Z,18.52
2022-12-09T02:34:48.751Z,19.35
2022-12-09T02:37:41.733Z,18.90
2022-12-09T03:04:06.320Z,20.10
2022-12-09T03:06:53.757Z,20.38
2022-12-09T03:09:43.045Z,21.40
2022-12-09T03:12:31.451Z,20.23
2022-12-09T03:15:19.377Z,20.60
2022-12-09T03:18:08.622Z,21.38
2022-12-09T03:20:55.551Z,20.85
2022-12-09T03:23:43.852Z,19.20
2022-12-09T03:26:32.012Z,20.17
2022-12-09T03:29:20.042Z,19.65
2022-12-09T03:32:06.783Z,20.60
2022-12-09T03:34:56.359Z,20.33
2022-12-09T03:37:42.841Z,20.15
2022-12-09T03:40:31.334Z,19.77
2022-12-09T03:43:22.806Z,20.60
2022-12-09T03:46:09.591Z,19.38
2022-12-09T03:48:56.522Z,19.15
2022-12-09T03:51:52.980Z,18.20
2022-12-09T03:54:47.217Z,19.08
2022-12-09T03:57:37.127Z,20.05
2022-12-09T04:00:24.450Z,18.60
2022-12-09T04:03:13.295Z,17.95
2022-12-09T04:05:59.451Z,18.65
2022-12-09T04:08:45.873Z,19.48
2022-12-09T04:11:32.758Z,19.60
2022-12-09T04:14:19.348Z,19.50
2022-12-09T04:17:06.291Z,19.10
2022-12-09T04:19:52.455Z,19.88
2022-12-09T04:22:39.240Z,20.15
2022-12-09T04:25:25.630Z,20.40
2022-12-09T04:28:12.026Z,21.08
2022-12-09T04:30:59.387Z,23.17
2022-12-09T04:33:45.827Z,21.48
2022-12-09T04:36:32.534Z,21.10
2022-12-09T04:39:19.776Z,19.98
2022-12-09T04:42:06.885Z,21.45
2022-12-09T04:44:53.818Z,20.55
2022-12-09T04:47:42.893Z,21.55
2022-12-09T04:50:29.562Z,22.13
2022-12-09T04:53:15.691Z,20.63
2022-12-09T04:56:10.063Z,21.63
2022-12-09T04:58:56.246Z,20.35
2022-12-09T05:01:43.661Z,20.77
2022-12-09T05:04:29.841Z,19.50
2022-12-09T05:07:16.455Z,19.20
2022-12-09T05:10:03.229Z,19.75
2022-12-09T05:12:49.734Z,19.98
2022-12-09T05:15:38.496Z,19.58
2022-12-09T05:18:25.774Z,18.45
2022-12-09T05:21:13.440Z,18.08
2022-12-09T05:24:00.790Z,18.10
2022-12-09T05:26:47.356Z,17.50
2022-12-09T05:29:33.656Z,17.80
2022-12-09T05:32:20.130Z,16.45
2022-12-09T05:35:07.470Z,17.17
2022-12-09T05:37:53.773Z,16.65
2022-12-09T05:40:40.331Z,15.45
2022-12-09T05:43:27.112Z,15.73
2022-12-09T05:46:14.585Z,15.70
2022-12-09T05:49:01.531Z,15.70
2022-12-09T05:51:48.490Z,15.80
2022-12-09T05:54:35.379Z,14.63
2022-12-09T05:57:22.830Z,14.73
2022-12-09T06:00:09.878Z,14.13
2022-12-09T06:02:59.503Z,14.07
2022-12-09T06:05:46.218Z,14.27
2022-12-09T06:08:33.301Z,14.40
2022-12-09T06:11:21.053Z,14.27
2022-12-09T06:14:11.372Z,16.42
2022-12-09T06:16:58.091Z,15.52
2022-12-09T06:19:44.799Z,15.73
2022-12-09T06:22:31.547Z,15.30
2022-12-09T06:25:18.127Z,17.10
2022-12-09T06:28:05.404Z,16.83
2022-12-09T06:30:52.475Z,17.63
2022-12-09T06:33:54.809Z,18.02
2022-12-09T06:36:42.283Z,13.57
2022-12-09T06:39:29.683Z,16.70
2022-12-09T06:42:17.205Z,17.38
2022-12-09T06:45:04.044Z,17.88
2022-12-09T06:47:50.258Z,17.33
2022-12-09T06:50:37.800Z,16.83
2022-12-09T06:53:24.188Z,15.63
2022-12-09T06:56:12.521Z,14.32
2022-12-09T06:59:00.540Z,15.40
2022-12-09T07:01:46.913Z,13.68
2022-12-09T07:04:34.298Z,15.18
2022-12-09T07:07:21.231Z,16.42
2022-12-09T07:10:08.796Z,16.90
2022-12-09T07:12:56.066Z,16.40
2022-12-09T07:15:42.730Z,14.48
2022-12-09T07:18:29.270Z,16.20
2022-12-09T07:21:17.468Z,17.27
2022-12-09T07:24:04.718Z,15.65
2022-12-09T07:26:51.473Z,15.45
2022-12-09T07:29:38.403Z,14.50
2022-12-09T07:32:25.026Z,13.93
2022-12-09T07:35:11.449Z,12.77
2022-12-09T07:37:58.091Z,12.20
2022-12-09T07:40:44.926Z,13.60
2022-12-09T07:43:35.375Z,12.57
2022-12-09T07:46:22.556Z,11.50
2022-12-09T07:49:09.408Z,12.18
2022-12-09T07:51:56.073Z,12.07
2022-12-09T07:54:42.848Z,12.02
2022-12-09T07:57:29.147Z,11.15
2022-12-09T08:00:16.564Z,11.13
2022-12-09T08:03:26.882Z,12.10
2022-12-09T08:06:14.262Z,11.32
2022-12-09T08:09:02.275Z,10.15
2022-12-09T08:11:49.541Z,10.75
2022-12-09T08:14:36.046Z,11.15
2022-12-09T08:17:22.964Z,11.13
2022-12-09T08:20:10.083Z,12.50
2022-12-09T08:22:58.115Z,12.07
2022-12-09T08:25:44.679Z,10.15
2022-12-09T08:28:31.741Z,11.00
2022-12-09T08:31:23.292Z,9.77
2022-12-09T08:34:09.994Z,9.55
2022-12-09T08:37:01.767Z,10.02
2022-12-09T08:39:48.544Z,9.70
2022-12-09T08:42:35.366Z,10.23
2022-12-09T08:45:21.873Z,9.73
2022-12-09T08:48:08.777Z,10.23
2022-12-09T08:50:55.606Z,9.35
2022-12-09T08:53:42.335Z,9.95
2022-12-09T08:56:29.947Z,10.25
2022-12-09T08:59:17.019Z,9.38
2022-12-09T09:02:04.102Z,8.68
2022-12-09T09:04:50.784Z,7.68
2022-12-09T09:07:38.149Z,8.00
2022-12-09T09:10:24.971Z,8.27
2022-12-09T09:13:15.788Z,7.40
2022-12-09T09:16:02.760Z,8.20
2022-12-09T09:18:50.671Z,7.65
2022-12-09T09:21:37.936Z,8.02
2022-12-09T09:24:26.184Z,7.47
2022-12-09T09:27:14.068Z,6.97
2022-12-09T09:30:05.350Z,7.60
2022-12-09T09:32:52.754Z,7.20
2022-12-09T09:35:39.633Z,6.80
2022-12-09T09:38:26.490Z,7.00
2022-12-09T09:41:28.665Z,5.80
2022-12-09T09:44:36.252Z,7.50
2022-12-09T09:47:25.954Z,7.38
2022-12-09T09:50:31.740Z,7.05
2022-12-09T09:53:23.461Z,7.55
2022-12-09T09:56:29.979Z,7.32
2022-12-09T09:59:32.555Z,6.70
2022-12-09T10:02:19.898Z,5.70
2022-12-09T10:05:06.784Z,6.97
2022-12-09T10:07:55.069Z,10.63
2022-12-09T10:10:51.635Z,10.70
2022-12-09T10:13:38.668Z,9.93
2022-12-09T10:16:29.079Z,8.68
2022-12-09T10:19:22.594Z,7.63
2022-12-09T10:22:35.495Z,6.72
2022-12-09T10:25:26.709Z,7.53
2022-12-09T10:28:18.827Z,6.50
2022-12-09T10:31:05.332Z,6.97
2022-12-09T10:33:52.362Z,6.00
2022-12-09T10:36:40.162Z,5.75
2022-12-09T10:39:26.819Z,5.93
2022-12-09T10:42:35.208Z,6.07
2022-12-09T10:45:23.904Z,6.07
2022-12-09T10:48:32.800Z,6.30
2022-12-09T10:51:22.820Z,5.90
2022-12-09T10:54:20.919Z,5.70
2022-12-09T10:57:28.389Z,5.57
2022-12-09T11:00:28.460Z,6.18
2022-12-09T11:03:37.268Z,5.65
2022-12-09T11:06:32.301Z,6.53
2022-12-09T11:09:49.012Z,6.78
2022-12-09T11:12:41.340Z,6.18
2022-12-09T11:15:35.398Z,6.28
2022-12-09T11:18:27.415Z,5.88
2022-12-09T11:21:49.529Z,5.63
2022-12-09T11:24:37.010Z,6.40
2022-12-09T11:27:29.729Z,6.13
2022-12-09T11:30:27.561Z,6.43
2022-12-09T11:33:15.381Z,6.60
2022-12-09T11:36:04.764Z,5.80
2022-12-09T11:38:53.250Z,5.72
2022-12-09T11:42:04.393Z,5.72
2022-12-09T11:44:59.994Z,6.05
2022-12-09T11:50:54.323Z,6.65
2022-12-09T11:53:41.410Z,7.13
2022-12-09T11:56:29.201Z,7.50
2022-12-09T11:59:20.927Z,8.25
2022-12-09T12:02:19.685Z,7.68
2022-12-09T12:05:21.755Z,7.30
2022-12-09T12:08:14.612Z,7.57
2022-12-09T12:11:04.241Z,7.35
2022-12-09T12:13:52.445Z,7.22
2022-12-09T12:16:57.990Z,6.63
2022-12-09T12:22:52.993Z,6.40
2022-12-09T12:25:53.296Z,6.65
2022-12-09T12:29:03.985Z,7.28
2022-12-09T12:32:10.952Z,7.25
2022-12-09T12:37:54.583Z,8.63
2022-12-09T12:41:02.093Z,8.70
2022-12-09T12:44:25.993Z,9.68
2022-12-09T12:47:13.179Z,9.85
2022-12-09T12:50:18.989Z,9.95
2022-12-09T12:53:24.774Z,11.27
2022-12-09T12:56:19.993Z,11.35
2022-12-09T12:59:25.171Z,11.48
2022-12-09T13:02:27.784Z,12.35
2022-12-09T13:05:24.288Z,12.48
2022-12-09T13:08:29.142Z,13.23
2022-12-09T13:11:19.994Z,13.68
2022-12-09T13:14:11.521Z,13.90
2022-12-09T13:16:57.633Z,13.45
2022-12-09T13:19:50.356Z,15.23
2022-12-09T13:22:44.671Z,13.50
2022-12-09T13:25:44.395Z,13.85
2022-12-09T13:28:30.685Z,14.13
2022-12-09T13:31:19.163Z,13.43
2022-12-09T13:34:14.402Z,13.45
2022-12-09T13:37:01.462Z,11.75
2022-12-09T13:39:51.254Z,11.95
2022-12-09T13:42:56.399Z,12.10
2022-12-09T13:45:45.569Z,11.98
2022-12-09T13:48:31.738Z,12.07
2022-12-09T13:51:18.566Z,11.13
2022-12-09T13:54:07.653Z,11.40
2022-12-09T13:57:06.509Z,10.77
2022-12-09T13:59:54.293Z,11.00
2022-12-09T14:03:00.979Z,11.38
2022-12-09T14:05:48.044Z,12.07
2022-12-09T14:08:37.322Z,11.52
2022-12-09T14:11:39.136Z,10.88
2022-12-09T14:14:25.943Z,11.32
2022-12-09T14:17:26.083Z,9.85
2022-12-09T14:23:34.153Z,9.18
2022-12-09T14:26:45.264Z,9.02
2022-12-09T14:29:51.847Z,8.52
2022-12-09T14:32:54.259Z,8.13
2022-12-09T14:36:04.146Z,8.65
2022-12-09T14:39:23.488Z,8.82
2022-12-09T14:42:18.947Z,9.50
2022-12-09T14:45:16.334Z,9.35
2022-12-09T14:48:02.941Z,9.95
2022-12-09T14:50:49.225Z,9.15
2022-12-09T14:53:36.546Z,9.73
2022-12-09T14:56:24.304Z,9.25
2022-12-09T14:59:15.047Z,9.25
2022-12-09T15:02:03.512Z,10.10
2022-12-09T15:04:51.078Z,8.82
2022-12-09T15:07:44.657Z,8.77
2022-12-09T15:10:32.285Z,8.77
2022-12-09T15:13:21.257Z,7.78
2022-12-09T15:16:12.409Z,8.10
2022-12-09T15:18:58.691Z,7.53
2022-12-09T15:21:46.621Z,7.93
2022-12-09T15:24:49.338Z,7.68
2022-12-09T15:30:23.890Z,7.00
2022-12-09T15:33:15.845Z,7.10
2022-12-09T15:36:14.370Z,8.07
2022-12-09T15:39:01.420Z,7.55
2022-12-09T15:42:07.828Z,7.45
2022-12-09T15:45:03.971Z,8.52
2022-12-09T15:47:50.986Z,8.48
2022-12-09T15:50:42.512Z,8.50
2022-12-09T15:53:32.453Z,9.38
2022-12-09T15:56:20.945Z,9.45
2022-12-09T15:59:13.763Z,8.73
2022-12-09T16:02:01.791Z,9.10
2022-12-09T16:04:49.971Z,9.00
2022-12-09T16:07:36.824Z,8.90
2022-12-09T16:10:27.120Z,10.25
2022-12-09T16:13:15.379Z,9.70
2022-12-09T16:16:03.198Z,10.13
2022-12-09T16:18:51.230Z,11.85
2022-12-09T16:21:38.639Z,11.55
2022-12-09T16:24:28.247Z,12.15
2022-12-09T16:27:26.544Z,11.80
2022-12-09T16:30:15.252Z,12.18
2022-12-09T16:33:02.740Z,12.65
2022-12-09T16:36:02.520Z,13.10
2022-12-09T16:39:07.513Z,13.63
2022-12-09T16:41:54.641Z,15.73
2022-12-09T16:44:41.072Z,16.33
2022-12-09T16:47:29.244Z,16.92
2022-12-09T16:50:15.541Z,13.88
2022-12-09T16:53:03.672Z,12.70
2022-12-09T16:56:01.058Z,10.70
2022-12-09T16:58:47.443Z,10.68
2022-12-09T17:01:36.848Z,10.60
2022-12-09T17:04:25.332Z,10.95
2022-12-09T17:07:12.077Z,10.73
2022-12-09T17:09:58.744Z,11.88
2022-12-09T17:12:45.455Z,12.15
2022-12-09T17:15:31.770Z,13.48
2022-12-09T17:18:18.408Z,13.07
2022-12-09T17:21:05.960Z,13.07
2022-12-09T17:23:52.850Z,13.15
2022-12-09T17:26:39.734Z,14.60
2022-12-09T17:29:26.467Z,15.38
2022-12-09T17:32:40.980Z,16.55
2022-12-09T17:35:28.693Z,21.77
2022-12-09T17:38:14.848Z,23.55
2022-12-09T17:41:17.406Z,21.38
2022-12-09T17:44:04.300Z,19.70
2022-12-09T17:46:51.314Z,18.88
2022-12-09T17:49:37.721Z,18.60
2022-12-09T17:52:23.825Z,20.05
2022-12-09T17:55:11.032Z,20.35
2022-12-09T17:58:01.250Z,19.35
2022-12-09T18:00:47.965Z,17.75
2022-12-09T18:03:54.765Z,18.63
2022-12-09T18:06:45.299Z,18.50
2022-12-09T18:09:31.736Z,19.77
2022-12-09T18:12:18.696Z,18.88
2022-12-09T18:15:08.620Z,17.85
2022-12-09T18:18:14.801Z,18.85
2022-12-09T18:21:01.700Z,18.10
2022-12-09T18:23:48.639Z,17.67
2022-12-09T18:26:41.287Z,18.00
2022-12-09T18:29:29.803Z,18.35
2022-12-09T18:32:23.388Z,19.23
2022-12-09T18:35:10.105Z,17.90
2022-12-09T18:38:11.025Z,18.55
2022-12-09T18:41:02.963Z,18.50
2022-12-09T18:43:51.488Z,19.38
2022-12-09T18:46:40.301Z,19.15
2022-12-09T18:49:28.589Z,17.92
2022-12-09T18:52:15.586Z,19.60
2022-12-09T18:55:01.901Z,19.20
2022-12-09T18:57:56.672Z,20.30
2022-12-09T19:00:43.487Z,20.35
2022-12-09T19:03:30.340Z,21.67
2022-12-09T19:06:21.391Z,17.67
2022-12-09T19:09:11.222Z,19.33
2022-12-09T19:12:07.282Z,17.00
2022-12-09T19:15:03.343Z,17.77
2022-12-09T19:17:52.028Z,17.48
2022-12-09T19:20:38.392Z,17.63
2022-12-09T19:23:28.665Z,16.98
2022-12-09T19:26:22.765Z,16.75
2022-12-09T19:29:10.086Z,15.98
2022-12-09T19:31:57.420Z,16.33
2022-12-09T19:34:49.370Z,16.60
2022-12-09T19:37:37.543Z,16.92
2022-12-09T19:40:24.199Z,17.40
2022-12-09T19:43:11.081Z,17.52
2022-12-09T19:45:57.251Z,17.08
2022-12-09T19:48:45.217Z,17.63
2022-12-09T19:51:32.347Z,16.83
2022-12-09T19:54:21.407Z,16.40
2022-12-09T19:57:10.750Z,16.65
2022-12-09T19:59:57.554Z,15.65
2022-12-09T20:02:45.379Z,16.60
2022-12-09T20:05:31.954Z,16.05
2022-12-09T20:08:18.757Z,15.02
2022-12-09T20:11:06.267Z,16.95
2022-12-09T20:13:53.809Z,15.30
2022-12-09T20:16:40.376Z,15.50
2022-12-09T20:19:26.970Z,15.05
2022-12-09T20:22:13.266Z,14.95
2022-12-09T20:24:59.570Z,13.82
2022-12-09T20:27:45.737Z,13.40
2022-12-09T20:30:31.914Z,13.65
2022-12-09T20:33:18.057Z,13.52
2022-12-09T20:36:08.265Z,13.75
2022-12-09T20:38:56.988Z,14.13
2022-12-09T20:41:44.574Z,14.57
2022-12-09T20:44:32.435Z,14.48
2022-12-09T20:47:18.871Z,14.05
2022-12-09T20:50:05.838Z,12.68
2022-12-09T20:52:52.666Z,13.32
2022-12-09T20:55:39.237Z,12.52
2022-12-09T20:58:25.705Z,12.85
2022-12-09T21:01:13.330Z,12.55
2022-12-09T21:04:00.618Z,12.63
2022-12-09T21:06:48.402Z,13.10
2022-12-09T21:09:34.810Z,11.30
2022-12-09T21:12:20.976Z,12.82
2022-12-09T21:15:07.379Z,13.32
2022-12-09T21:17:55.068Z,12.13
2022-12-09T21:20:44.392Z,12.88
2022-12-09T21:23:34.187Z,12.25
2022-12-09T21:26:21.774Z,12.35
2022-12-09T21:29:09.458Z,12.30
2022-12-09T21:31:55.668Z,13.45
2022-12-09T21:34:41.818Z,13.25
2022-12-09T21:37:29.630Z,14.50
2022-12-09T21:40:16.508Z,15.25
2022-12-09T21:43:02.901Z,15.82
2022-12-09T21:45:49.217Z,14.52
2022-12-09T21:48:36.007Z,15.30
2022-12-09T21:51:22.560Z,15.70
2022-12-09T21:54:08.802Z,15.85
2022-12-09T21:56:55.728Z,16.33
2022-12-09T21:59:41.848Z,16.60
2022-12-09T22:02:28.112Z,17.17
2022-12-09T22:05:14.344Z,16.33
2022-12-09T22:08:00.736Z,17.08
2022-12-09T22:10:47.078Z,16.92
2022-12-09T22:13:39.031Z,16.90
2022-12-09T22:16:29.015Z,17.33
2022-12-09T22:19:18.387Z,15.48
2022-12-09T22:22:12.109Z,13.70
2022-12-09T22:24:58.552Z,15.25
2022-12-09T22:27:45.513Z,15.98
2022-12-09T22:30:31.784Z,15.07
2022-12-09T22:33:18.019Z,14.70
2022-12-09T22:36:08.228Z,16.17
2022-12-09T22:38:55.255Z,16.33
2022-12-09T22:41:41.651Z,16.88
2022-12-09T22:44:28.767Z,16.50
2022-12-09T22:47:15.140Z,15.00
2022-12-09T22:50:01.250Z,13.30
2022-12-09T22:52:47.643Z,12.27
2022-12-09T22:55:33.849Z,11.20
2022-12-09T22:58:19.986Z,11.57
2022-12-09T23:01:14.235Z,11.10
2022-12-09T23:04:01.177Z,12.88
2022-12-09T23:06:47.575Z,12.20
2022-12-09T23:09:33.871Z,13.52
2022-12-09T23:12:20.118Z,12.60
2022-12-09T23:15:06.325Z,12.15
2022-12-09T23:17:53.375Z,12.15
2022-12-09T23:20:40.396Z,12.95
2022-12-09T23:23:26.644Z,12.82
2022-12-09T23:26:14.153Z,13.23
2022-12-09T23:29:01.680Z,12.85
2022-12-09T23:31:47.774Z,12.73
2022-12-09T23:34:33.830Z,12.23
2022-12-09T23:37:20.013Z,12.30
2022-12-09T23:40:06.767Z,12.30
2022-12-09T23:42:53.865Z,11.70
2022-12-09T23:45:40.268Z,11.77
2022-12-09T23:48:26.697Z,13.07
2022-12-09T23:51:21.120Z,12.55
2022-12-09T23:54:09.156Z,12.50
2022-12-09T23:56:55.368Z,12.50
2022-12-09T23:59:41.502Z,12.60
